Airfield :
LOGIN :

Register | Disclaimer

   EN    FR    IT 

 










Legend :    VFR   Marginal VFR   IFR   Intensive IFR   Very Intensive IFR
Visi :
Ceiling :
>= 8 km
>= 3000ft
5 to 8 km
1000 to 3000 ft
1500m to 5 km
500 to 1000 ft
800 to 1500m
200 to 500 ft
< 800m
< 200 ft
Symbols :   Thunderstorms  Fog  Heavy snow  Heavy precipitations  Wind > 20 kt
SIGMETs :     Misc.  Thunderstorms  Icing  Turbulence  Mountain Waves  Volcanic Ashes







- Airport Elevation : 1411 ft
- IATA code : SZG


LOWS - Salzburg

CURRENT METAR :
  • 260020Z AUTO 15007KT 9999 FEW110 BKN130 18/16 Q1020

EXPIRED METARs :
  • 252350Z AUTO 15007KT 9999 BKN100 18/16 Q1021
  • 252320Z AUTO 15006KT 9999 SCT120 18/16 Q1021
  • 252250Z AUTO 17005KT 9999 FEW120 18/16 Q1021
  • 252220Z AUTO 11005KT 080V140 9999 //////CB FEW120 BKN130 19/17 Q1021
  • 252150Z AUTO VRB02KT 9999 //////CB FEW060 BKN160 19/17 Q1021
  • 252120Z AUTO VRB02KT 9999 //////CB FEW050 SCT160 19/17 Q1021

TAF TAF LOWS
Valid from the 26 at 00:00 until the 27 at 00:00 UTC


252315Z 2600/2624 16005KT 9999 FEW050 BKN110 TX26/2613Z TN16/2604Z
BECMG 2608/2610 35006KT FEW050 SCT300
TEMPO 2610/2617 04007KT
PROB40
TEMPO 2612/2618 VRB15G25KT -TSRA SCT040CB BKN050 BKN100
No reported NOTAMs for that airfield.



MET'MAP, your aeronautical weather chart ! - Copyright ORBIFLY December 2007 - Disclaimer

ORBIFLY MET'MAP TEAM :

Programming & Development : Alexandra Zaïnal
Concept & Development : Baudouin d'Aumeries
Co-Development & Prog : Marc-Olivier Méhu
Technical & hardware support : Manuel Goepfert

Contact : metmap@orbifly.com




SOURCES & CREDITS :

   NOAA